sensor_id;sensor_type;location;lat;lon;timestamp;temperature;humidity
20929;DHT22;21895;47.072;15.132;2022-12-24T00:01:02;4.80;99.90
20929;DHT22;21895;47.072;15.132;2022-12-24T00:03:30;4.70;99.90
20929;DHT22;21895;47.072;15.132;2022-12-24T00:05:56;4.70;99.90
20929;DHT22;21895;47.072;15.132;2022-12-24T00:08:23;4.60;99.90
20929;DHT22;21895;47.072;15.132;2022-12-24T00:10:51;4.50;99.90
20929;DHT22;21895;47.072;15.132;2022-12-24T00:13:20;4.50;99.90
20929;DHT22;21895;47.072;15.132;2022-12-24T00:15:47;4.60;99.90
20929;DHT22;21895;47.072;15.132;2022-12-24T00:18:14;4.70;99.90
20929;DHT22;21895;47.072;15.132;2022-12-24T00:20:41;4.70;99.90
20929;DHT22;21895;47.072;15.132;2022-12-24T00:23:12;4.70;99.90
20929;DHT22;21895;47.072;15.132;2022-12-24T00:25:39;4.50;99.90
20929;DHT22;21895;47.072;15.132;2022-12-24T00:28:05;4.50;99.90
20929;DHT22;21895;47.072;15.132;2022-12-24T00:30:32;4.50;99.90
20929;DHT22;21895;47.072;15.132;2022-12-24T00:32:58;4.50;99.90
20929;DHT22;21895;47.072;15.132;2022-12-24T00:35:25;4.60;99.90
20929;DHT22;21895;47.072;15.132;2022-12-24T00:37:51;4.50;99.90
20929;DHT22;21895;47.072;15.132;2022-12-24T00:40:18;4.50;99.90
20929;DHT22;21895;47.072;15.132;2022-12-24T00:42:44;4.40;99.90
20929;DHT22;21895;47.072;15.132;2022-12-24T00:45:11;4.40;99.90
20929;DHT22;21895;47.072;15.132;2022-12-24T00:47:38;4.40;99.90
20929;DHT22;21895;47.072;15.132;2022-12-24T00:50:05;4.60;99.90
20929;DHT22;21895;47.072;15.132;2022-12-24T00:52:32;4.60;99.90
20929;DHT22;21895;47.072;15.132;2022-12-24T00:55:00;4.60;99.90
20929;DHT22;21895;47.072;15.132;2022-12-24T00:57:26;4.30;99.90
20929;DHT22;21895;47.072;15.132;2022-12-24T00:59:53;4.20;99.90
20929;DHT22;21895;47.072;15.132;2022-12-24T01:02:19;4.20;99.90
20929;DHT22;21895;47.072;15.132;2022-12-24T01:04:46;4.10;99.90
20929;DHT22;21895;47.072;15.132;2022-12-24T01:07:31;4.20;99.90
20929;DHT22;21895;47.072;15.132;2022-12-24T01:09:57;4.20;99.90
20929;DHT22;21895;47.072;15.132;2022-12-24T01:12:24;4.20;99.90
20929;DHT22;21895;47.072;15.132;2022-12-24T01:14:51;4.10;99.90
20929;DHT22;21895;47.072;15.132;2022-12-24T01:17:17;4.10;99.90
20929;DHT22;21895;47.072;15.132;2022-12-24T01:19:44;4.10;99.90
20929;DHT22;21895;47.072;15.132;2022-12-24T01:22:10;4.20;99.90
20929;DHT22;21895;47.072;15.132;2022-12-24T01:24:39;4.40;99.90
20929;DHT22;21895;47.072;15.132;2022-12-24T01:27:07;4.50;99.90
20929;DHT22;21895;47.072;15.132;2022-12-24T01:29:33;4.20;99.90
20929;DHT22;21895;47.072;15.132;2022-12-24T01:32:00;4.30;99.90
20929;DHT22;21895;47.072;15.132;2022-12-24T01:34:26;4.30;99.90
20929;DHT22;21895;47.072;15.132;2022-12-24T01:36:53;4.30;99.90
20929;DHT22;21895;47.072;15.132;2022-12-24T01:39:19;4.30;99.90
20929;DHT22;21895;47.072;15.132;2022-12-24T01:41:46;4.20;99.90
20929;DHT22;21895;47.072;15.132;2022-12-24T01:44:33;4.20;99.90
20929;DHT22;21895;47.072;15.132;2022-12-24T01:47:45;4.00;99.90
20929;DHT22;21895;47.072;15.132;2022-12-24T01:50:15;3.90;99.90
20929;DHT22;21895;47.072;15.132;2022-12-24T01:52:43;4.00;99.90
20929;DHT22;21895;47.072;15.132;2022-12-24T01:55:13;4.00;99.90
20929;DHT22;21895;47.072;15.132;2022-12-24T01:57:47;4.00;99.90
20929;DHT22;21895;47.072;15.132;2022-12-24T02:00:17;4.00;99.90
20929;DHT22;21895;47.072;15.132;2022-12-24T02:02:46;3.90;99.90
20929;DHT22;21895;47.072;15.132;2022-12-24T02:05:57;3.80;99.90
20929;DHT22;21895;47.072;15.132;2022-12-24T02:08:25;3.90;99.90
20929;DHT22;21895;47.072;15.132;2022-12-24T02:11:21;3.90;99.90
20929;DHT22;21895;47.072;15.132;2022-12-24T02:13:54;3.70;99.90
20929;DHT22;21895;47.072;15.132;2022-12-24T02:17:19;3.60;99.90
20929;DHT22;21895;47.072;15.132;2022-12-24T02:23:02;3.60;99.90
20929;DHT22;21895;47.072;15.132;2022-12-24T02:28:55;3.70;99.90
20929;DHT22;21895;47.072;15.132;2022-12-24T02:32:57;3.50;99.90
20929;DHT22;21895;47.072;15.132;2022-12-24T02:35:53;3.40;99.90
20929;DHT22;21895;47.072;15.132;2022-12-24T02:38:28;3.40;99.90
20929;DHT22;21895;47.072;15.132;2022-12-24T02:41:23;3.40;99.90
20929;DHT22;21895;47.072;15.132;2022-12-24T02:44:36;3.40;99.90
20929;DHT22;21895;47.072;15.132;2022-12-24T02:47:10;3.40;99.90
20929;DHT22;21895;47.072;15.132;2022-12-24T02:49:43;3.40;99.90
20929;DHT22;21895;47.072;15.132;2022-12-24T02:52:35;3.40;99.90
20929;DHT22;21895;47.072;15.132;2022-12-24T02:58:12;3.50;99.90
20929;DHT22;21895;47.072;15.132;2022-12-24T03:07:20;3.10;99.90
20929;DHT22;21895;47.072;15.132;2022-12-24T03:10:19;3.00;99.90
20929;DHT22;21895;47.072;15.132;2022-12-24T03:13:12;2.90;99.90
20929;DHT22;21895;47.072;15.132;2022-12-24T03:15:42;2.90;99.90
20929;DHT22;21895;47.072;15.132;2022-12-24T03:18:11;3.00;99.90
20929;DHT22;21895;47.072;15.132;2022-12-24T03:20:49;3.10;99.90
20929;DHT22;21895;47.072;15.132;2022-12-24T03:23:33;3.00;99.90
20929;DHT22;21895;47.072;15.132;2022-12-24T03:26:03;3.10;99.90
20929;DHT22;21895;47.072;15.132;2022-12-24T03:28:33;2.90;99.90
20929;DHT22;21895;47.072;15.132;2022-12-24T03:31:04;2.90;99.90
20929;DHT22;21895;47.072;15.132;2022-12-24T03:33:32;2.90;99.90
20929;DHT22;21895;47.072;15.132;2022-12-24T03:35:59;2.90;99.90
20929;DHT22;21895;47.072;15.132;2022-12-24T03:38:26;2.80;99.90
20929;DHT22;21895;47.072;15.132;2022-12-24T03:40:53;2.90;99.90
20929;DHT22;21895;47.072;15.132;2022-12-24T03:43:19;3.00;99.90
20929;DHT22;21895;47.072;15.132;2022-12-24T03:45:46;2.80;99.90
20929;DHT22;21895;47.072;15.132;2022-12-24T03:48:13;2.70;99.90
20929;DHT22;21895;47.072;15.132;2022-12-24T03:50:39;2.70;99.90
20929;DHT22;21895;47.072;15.132;2022-12-24T03:53:06;2.70;99.90
20929;DHT22;21895;47.072;15.132;2022-12-24T03:55:32;2.80;99.90
20929;DHT22;21895;47.072;15.132;2022-12-24T03:57:59;2.90;99.90
20929;DHT22;21895;47.072;15.132;2022-12-24T04:00:25;3.00;99.90
20929;DHT22;21895;47.072;15.132;2022-12-24T04:02:52;2.90;99.90
20929;DHT22;21895;47.072;15.132;2022-12-24T04:05:20;2.90;99.90
20929;DHT22;21895;47.072;15.132;2022-12-24T04:07:47;2.90;99.90
20929;DHT22;21895;47.072;15.132;2022-12-24T04:10:14;2.90;99.90
20929;DHT22;21895;47.072;15.132;2022-12-24T04:12:42;2.80;99.90
20929;DHT22;21895;47.072;15.132;2022-12-24T04:15:09;2.70;99.90
20929;DHT22;21895;47.072;15.132;2022-12-24T04:17:36;2.70;99.90
20929;DHT22;21895;47.072;15.132;2022-12-24T04:20:03;2.50;99.90
20929;DHT22;21895;47.072;15.132;2022-12-24T04:22:30;2.60;99.90
20929;DHT22;21895;47.072;15.132;2022-12-24T04:24:57;2.50;99.90
20929;DHT22;21895;47.072;15.132;2022-12-24T04:27:23;2.30;99.90
20929;DHT22;21895;47.072;15.132;2022-12-24T04:29:56;2.20;99.90
20929;DHT22;21895;47.072;15.132;2022-12-24T04:32:24;2.20;99.90
20929;DHT22;21895;47.072;15.132;2022-12-24T04:34:51;2.20;99.90
20929;DHT22;21895;47.072;15.132;2022-12-24T04:37:18;2.30;99.90
20929;DHT22;21895;47.072;15.132;2022-12-24T04:39:44;2.50;99.90
20929;DHT22;21895;47.072;15.132;2022-12-24T04:42:11;2.60;99.90
20929;DHT22;21895;47.072;15.132;2022-12-24T04:44:37;2.40;99.90
20929;DHT22;21895;47.072;15.132;2022-12-24T04:47:04;2.30;99.90
20929;DHT22;21895;47.072;15.132;2022-12-24T04:49:30;2.30;99.90
20929;DHT22;21895;47.072;15.132;2022-12-24T04:51:57;2.20;99.90
20929;DHT22;21895;47.072;15.132;2022-12-24T04:54:23;2.10;99.90
20929;DHT22;21895;47.072;15.132;2022-12-24T04:56:50;2.20;99.90
20929;DHT22;21895;47.072;15.132;2022-12-24T04:59:16;2.10;99.90
20929;DHT22;21895;47.072;15.132;2022-12-24T05:01:42;2.10;99.90
20929;DHT22;21895;47.072;15.132;2022-12-24T05:04:09;2.20;99.90
20929;DHT22;21895;47.072;15.132;2022-12-24T05:06:36;2.30;99.90
20929;DHT22;21895;47.072;15.132;2022-12-24T05:09:02;2.40;99.90
20929;DHT22;21895;47.072;15.132;2022-12-24T05:11:29;2.40;99.90
20929;DHT22;21895;47.072;15.132;2022-12-24T05:13:56;2.20;99.90
20929;DHT22;21895;47.072;15.132;2022-12-24T05:16:23;2.10;99.90
20929;DHT22;21895;47.072;15.132;2022-12-24T05:18:51;2.10;99.90
20929;DHT22;21895;47.072;15.132;2022-12-24T05:21:21;2.10;99.90
20929;DHT22;21895;47.072;15.132;2022-12-24T05:23:49;2.20;99.90
20929;DHT22;21895;47.072;15.132;2022-12-24T05:26:40;2.30;99.90
20929;DHT22;21895;47.072;15.132;2022-12-24T05:29:10;2.40;99.90
20929;DHT22;21895;47.072;15.132;2022-12-24T05:31:37;2.30;99.90
20929;DHT22;21895;47.072;15.132;2022-12-24T05:34:06;2.20;99.90
20929;DHT22;21895;47.072;15.132;2022-12-24T05:36:33;2.30;99.90
20929;DHT22;21895;47.072;15.132;2022-12-24T05:38:59;2.30;99.90
20929;DHT22;21895;47.072;15.132;2022-12-24T05:41:26;2.30;99.90
20929;DHT22;21895;47.072;15.132;2022-12-24T05:43:52;2.20;99.90
20929;DHT22;21895;47.072;15.132;2022-12-24T05:46:21;2.30;99.90
20929;DHT22;21895;47.072;15.132;2022-12-24T05:48:50;2.40;99.90
20929;DHT22;21895;47.072;15.132;2022-12-24T05:51:18;2.50;99.90
20929;DHT22;21895;47.072;15.132;2022-12-24T05:53:48;2.30;99.90
20929;DHT22;21895;47.072;15.132;2022-12-24T05:56:18;2.20;99.90
20929;DHT22;21895;47.072;15.132;2022-12-24T05:58:46;2.20;99.90
20929;DHT22;21895;47.072;15.132;2022-12-24T06:01:14;2.10;99.90
20929;DHT22;21895;47.072;15.132;2022-12-24T06:03:41;2.00;99.90
20929;DHT22;21895;47.072;15.132;2022-12-24T06:06:11;2.20;99.90
20929;DHT22;21895;47.072;15.132;2022-12-24T06:08:40;2.30;99.90
20929;DHT22;21895;47.072;15.132;2022-12-24T06:11:09;2.20;99.90
20929;DHT22;21895;47.072;15.132;2022-12-24T06:13:39;2.00;99.90
20929;DHT22;21895;47.072;15.132;2022-12-24T06:16:08;1.90;99.90
20929;DHT22;21895;47.072;15.132;2022-12-24T06:18:36;1.80;99.90
20929;DHT22;21895;47.072;15.132;2022-12-24T06:21:04;1.80;99.90
20929;DHT22;21895;47.072;15.132;2022-12-24T06:23:34;1.80;99.90
20929;DHT22;21895;47.072;15.132;2022-12-24T06:26:02;1.70;99.90
20929;DHT22;21895;47.072;15.132;2022-12-24T06:28:32;1.60;99.90
20929;DHT22;21895;47.072;15.132;2022-12-24T06:31:01;1.50;99.90
20929;DHT22;21895;47.072;15.132;2022-12-24T06:33:30;1.60;99.90
20929;DHT22;21895;47.072;15.132;2022-12-24T06:35:58;1.80;99.90
20929;DHT22;21895;47.072;15.132;2022-12-24T06:38:24;1.60;99.90
20929;DHT22;21895;47.072;15.132;2022-12-24T06:40:51;1.40;99.90
20929;DHT22;21895;47.072;15.132;2022-12-24T06:43:17;1.20;99.90
20929;DHT22;21895;47.072;15.132;2022-12-24T06:45:45;1.30;99.90
20929;DHT22;21895;47.072;15.132;2022-12-24T06:48:14;1.30;99.90
20929;DHT22;21895;47.072;15.132;2022-12-24T06:50:41;1.60;99.90
20929;DHT22;21895;47.072;15.132;2022-12-24T06:53:08;1.60;99.90
20929;DHT22;21895;47.072;15.132;2022-12-24T06:55:35;1.60;99.90
20929;DHT22;21895;47.072;15.132;2022-12-24T06:58:02;1.50;99.90
20929;DHT22;21895;47.072;15.132;2022-12-24T07:00:29;1.60;99.90
20929;DHT22;21895;47.072;15.132;2022-12-24T07:02:55;1.60;99.90
20929;DHT22;21895;47.072;15.132;2022-12-24T07:05:22;1.50;99.90
20929;DHT22;21895;47.072;15.132;2022-12-24T07:07:48;1.50;99.90
20929;DHT22;21895;47.072;15.132;2022-12-24T07:10:17;1.60;99.90
20929;DHT22;21895;47.072;15.132;2022-12-24T07:12:44;1.70;99.90
20929;DHT22;21895;47.072;15.132;2022-12-24T07:15:12;1.60;99.90
20929;DHT22;21895;47.072;15.132;2022-12-24T07:17:39;1.60;99.90
20929;DHT22;21895;47.072;15.132;2022-12-24T07:20:09;1.60;99.90
20929;DHT22;21895;47.072;15.132;2022-12-24T07:22:38;1.80;99.90
20929;DHT22;21895;47.072;15.132;2022-12-24T07:25:05;1.90;99.90
20929;DHT22;21895;47.072;15.132;2022-12-24T07:27:32;1.90;99.90
20929;DHT22;21895;47.072;15.132;2022-12-24T07:29:58;1.90;99.90
20929;DHT22;21895;47.072;15.132;2022-12-24T07:32:25;2.20;99.90
20929;DHT22;21895;47.072;15.132;2022-12-24T07:34:51;2.30;99.90
20929;DHT22;21895;47.072;15.132;2022-12-24T07:37:18;2.30;99.90
20929;DHT22;21895;47.072;15.132;2022-12-24T07:39:44;2.20;99.90
20929;DHT22;21895;47.072;15.132;2022-12-24T07:42:11;2.30;99.90
20929;DHT22;21895;47.072;15.132;2022-12-24T07:44:37;2.10;99.90
20929;DHT22;21895;47.072;15.132;2022-12-24T07:47:04;2.20;99.90
20929;DHT22;21895;47.072;15.132;2022-12-24T07:49:30;2.20;99.90
20929;DHT22;21895;47.072;15.132;2022-12-24T07:51:57;2.30;99.90
20929;DHT22;21895;47.072;15.132;2022-12-24T07:54:24;2.40;99.90
20929;DHT22;21895;47.072;15.132;2022-12-24T07:56:50;2.40;99.90
20929;DHT22;21895;47.072;15.132;2022-12-24T07:59:17;2.50;99.90
20929;DHT22;21895;47.072;15.132;2022-12-24T08:01:43;2.50;99.90
20929;DHT22;21895;47.072;15.132;2022-12-24T08:04:10;2.60;99.90
20929;DHT22;21895;47.072;15.132;2022-12-24T08:06:37;2.50;99.90
20929;DHT22;21895;47.072;15.132;2022-12-24T08:09:04;2.70;99.90
20929;DHT22;21895;47.072;15.132;2022-12-24T08:11:31;2.70;99.90
20929;DHT22;21895;47.072;15.132;2022-12-24T08:13:57;2.80;99.90
20929;DHT22;21895;47.072;15.132;2022-12-24T08:16:24;2.80;99.90
20929;DHT22;21895;47.072;15.132;2022-12-24T08:18:50;2.80;99.90
20929;DHT22;21895;47.072;15.132;2022-12-24T08:21:17;2.90;99.90
20929;DHT22;21895;47.072;15.132;2022-12-24T08:23:45;3.10;99.90
20929;DHT22;21895;47.072;15.132;2022-12-24T08:26:12;3.00;99.90
20929;DHT22;21895;47.072;15.132;2022-12-24T08:28:39;3.10;99.90
20929;DHT22;21895;47.072;15.132;2022-12-24T08:31:05;3.20;99.90
20929;DHT22;21895;47.072;15.132;2022-12-24T08:33:32;3.30;99.90
20929;DHT22;21895;47.072;15.132;2022-12-24T08:36:00;3.50;99.90
20929;DHT22;21895;47.072;15.132;2022-12-24T08:38:27;3.40;99.90
20929;DHT22;21895;47.072;15.132;2022-12-24T08:40:54;3.40;99.90
20929;DHT22;21895;47.072;15.132;2022-12-24T08:43:21;3.50;99.90
20929;DHT22;21895;47.072;15.132;2022-12-24T08:45:50;3.70;99.90
20929;DHT22;21895;47.072;15.132;2022-12-24T08:48:16;3.80;99.90
20929;DHT22;21895;47.072;15.132;2022-12-24T08:50:43;3.70;99.90
20929;DHT22;21895;47.072;15.132;2022-12-24T08:53:10;3.70;99.90
20929;DHT22;21895;47.072;15.132;2022-12-24T08:55:37;3.90;99.90
20929;DHT22;21895;47.072;15.132;2022-12-24T08:58:04;3.90;99.90
20929;DHT22;21895;47.072;15.132;2022-12-24T09:00:31;4.00;99.90
20929;DHT22;21895;47.072;15.132;2022-12-24T09:02:57;4.20;99.90
20929;DHT22;21895;47.072;15.132;2022-12-24T09:05:24;4.10;99.90
20929;DHT22;21895;47.072;15.132;2022-12-24T09:07:51;3.90;99.90
20929;DHT22;21895;47.072;15.132;2022-12-24T09:10:17;3.80;99.90
20929;DHT22;21895;47.072;15.132;2022-12-24T09:12:44;3.80;99.90
20929;DHT22;21895;47.072;15.132;2022-12-24T09:15:10;3.70;99.90
20929;DHT22;21895;47.072;15.132;2022-12-24T09:17:39;3.70;99.90
20929;DHT22;21895;47.072;15.132;2022-12-24T09:20:06;3.60;99.90
20929;DHT22;21895;47.072;15.132;2022-12-24T09:22:35;3.70;99.90
20929;DHT22;21895;47.072;15.132;2022-12-24T09:25:03;3.70;99.90
20929;DHT22;21895;47.072;15.132;2022-12-24T09:27:35;3.80;99.90
20929;DHT22;21895;47.072;15.132;2022-12-24T09:30:03;3.90;99.90
20929;DHT22;21895;47.072;15.132;2022-12-24T09:32:31;4.00;99.90
20929;DHT22;21895;47.072;15.132;2022-12-24T09:34:59;4.20;99.90
20929;DHT22;21895;47.072;15.132;2022-12-24T09:37:25;4.20;99.90
20929;DHT22;21895;47.072;15.132;2022-12-24T09:39:52;4.20;99.90
20929;DHT22;21895;47.072;15.132;2022-12-24T09:43:05;4.20;99.90
20929;DHT22;21895;47.072;15.132;2022-12-24T09:46:34;4.40;99.90
20929;DHT22;21895;47.072;15.132;2022-12-24T09:49:09;4.60;99.90
20929;DHT22;21895;47.072;15.132;2022-12-24T09:51:47;4.80;99.90
20929;DHT22;21895;47.072;15.132;2022-12-24T09:54:30;5.10;99.90
20929;DHT22;21895;47.072;15.132;2022-12-24T09:57:11;5.30;99.90
20929;DHT22;21895;47.072;15.132;2022-12-24T09:59:50;5.40;99.90
20929;DHT22;21895;47.072;15.132;2022-12-24T10:02:18;5.40;99.90
20929;DHT22;21895;47.072;15.132;2022-12-24T10:04:46;5.60;99.90
20929;DHT22;21895;47.072;15.132;2022-12-24T10:07:37;5.70;99.90
20929;DHT22;21895;47.072;15.132;2022-12-24T10:10:52;6.20;99.90
20929;DHT22;21895;47.072;15.132;2022-12-24T10:14:38;6.80;99.90
20929;DHT22;21895;47.072;15.132;2022-12-24T10:18:02;7.30;99.90
20929;DHT22;21895;47.072;15.132;2022-12-24T10:20:59;7.60;99.90
20929;DHT22;21895;47.072;15.132;2022-12-24T10:23:54;8.00;99.90
20929;DHT22;21895;47.072;15.132;2022-12-24T10:26:41;8.30;99.90
20929;DHT22;21895;47.072;15.132;2022-12-24T10:29:26;8.60;99.90
20929;DHT22;21895;47.072;15.132;2022-12-24T10:32:25;8.90;99.90
20929;DHT22;21895;47.072;15.132;2022-12-24T10:35:24;9.10;99.90
20929;DHT22;21895;47.072;15.132;2022-12-24T10:38:01;9.20;99.90
20929;DHT22;21895;47.072;15.132;2022-12-24T10:43:20;10.10;99.90
20929;DHT22;21895;47.072;15.132;2022-12-24T10:46:02;10.60;99.90
20929;DHT22;21895;47.072;15.132;2022-12-24T10:48:41;10.80;99.90
20929;DHT22;21895;47.072;15.132;2022-12-24T10:51:22;11.10;99.90
20929;DHT22;21895;47.072;15.132;2022-12-24T10:54:06;11.60;97.90
20929;DHT22;21895;47.072;15.132;2022-12-24T10:56:59;12.40;94.80
20929;DHT22;21895;47.072;15.132;2022-12-24T10:59:41;13.20;91.80
20929;DHT22;21895;47.072;15.132;2022-12-24T11:02:30;13.60;92.90
20929;DHT22;21895;47.072;15.132;2022-12-24T11:05:00;14.20;85.50
20929;DHT22;21895;47.072;15.132;2022-12-24T11:07:31;14.50;85.80
20929;DHT22;21895;47.072;15.132;2022-12-24T11:10:04;14.70;83.10
20929;DHT22;21895;47.072;15.132;2022-12-24T11:12:46;14.90;80.80
20929;DHT22;21895;47.072;15.132;2022-12-24T11:16:54;15.10;81.30
20929;DHT22;21895;47.072;15.132;2022-12-24T11:19:37;15.10;79.40
20929;DHT22;21895;47.072;15.132;2022-12-24T11:22:20;15.10;78.30
20929;DHT22;21895;47.072;15.132;2022-12-24T11:25:05;15.00;78.60
20929;DHT22;21895;47.072;15.132;2022-12-24T11:27:43;15.10;78.80
20929;DHT22;21895;47.072;15.132;2022-12-24T11:30:35;15.00;78.90
20929;DHT22;21895;47.072;15.132;2022-12-24T11:33:15;15.00;79.60
20929;DHT22;21895;47.072;15.132;2022-12-24T11:35:53;15.10;79.20
20929;DHT22;21895;47.072;15.132;2022-12-24T11:38:28;15.10;79.00
20929;DHT22;21895;47.072;15.132;2022-12-24T11:40:59;15.20;79.30
20929;DHT22;21895;47.072;15.132;2022-12-24T11:43:39;15.10;77.80
20929;DHT22;21895;47.072;15.132;2022-12-24T11:46:34;15.10;79.10
20929;DHT22;21895;47.072;15.132;2022-12-24T11:49:48;15.30;77.00
20929;DHT22;21895;47.072;15.132;2022-12-24T11:52:22;15.40;76.80
20929;DHT22;21895;47.072;15.132;2022-12-24T11:55:12;15.40;76.00
20929;DHT22;21895;47.072;15.132;2022-12-24T12:01:08;15.50;75.70
20929;DHT22;21895;47.072;15.132;2022-12-24T12:03:48;15.50;75.90
20929;DHT22;21895;47.072;15.132;2022-12-24T12:09:39;15.50;73.90
20929;DHT22;21895;47.072;15.132;2022-12-24T12:12:16;15.30;73.70
20929;DHT22;21895;47.072;15.132;2022-12-24T12:14:51;15.30;73.60
20929;DHT22;21895;47.072;15.132;2022-12-24T12:18:12;15.50;73.60
20929;DHT22;21895;47.072;15.132;2022-12-24T12:20:47;15.60;73.60
20929;DHT22;21895;47.072;15.132;2022-12-24T12:24:06;15.50;74.00
20929;DHT22;21895;47.072;15.132;2022-12-24T12:26:42;15.40;73.70
20929;DHT22;21895;47.072;15.132;2022-12-24T12:29:23;15.40;74.10
20929;DHT22;21895;47.072;15.132;2022-12-24T12:32:06;15.30;74.70
20929;DHT22;21895;47.072;15.132;2022-12-24T12:35:01;15.30;72.20
20929;DHT22;21895;47.072;15.132;2022-12-24T12:37:44;15.30;72.40
20929;DHT22;21895;47.072;15.132;2022-12-24T12:40:20;15.50;71.90
20929;DHT22;21895;47.072;15.132;2022-12-24T12:44:52;15.50;72.60
20929;DHT22;21895;47.072;15.132;2022-12-24T12:50:33;15.40;70.50
20929;DHT22;21895;47.072;15.132;2022-12-24T12:56:34;15.30;71.60
20929;DHT22;21895;47.072;15.132;2022-12-24T12:59:35;15.10;71.90
20929;DHT22;21895;47.072;15.132;2022-12-24T13:02:55;15.20;70.90
20929;DHT22;21895;47.072;15.132;2022-12-24T13:08:37;15.30;72.20
20929;DHT22;21895;47.072;15.132;2022-12-24T13:12:32;15.40;71.80
20929;DHT22;21895;47.072;15.132;2022-12-24T13:20:30;15.20;71.80
20929;DHT22;21895;47.072;15.132;2022-12-24T13:23:22;15.20;71.90
20929;DHT22;21895;47.072;15.132;2022-12-24T13:25:53;15.30;71.00
20929;DHT22;21895;47.072;15.132;2022-12-24T13:28:32;15.30;70.70
20929;DHT22;21895;47.072;15.132;2022-12-24T13:31:24;15.30;71.90
20929;DHT22;21895;47.072;15.132;2022-12-24T13:33:56;15.20;71.80
20929;DHT22;21895;47.072;15.132;2022-12-24T13:36:24;15.30;70.10
20929;DHT22;21895;47.072;15.132;2022-12-24T13:39:26;15.10;70.50
20929;DHT22;21895;47.072;15.132;2022-12-24T13:41:53;15.10;72.20
20929;DHT22;21895;47.072;15.132;2022-12-24T13:44:22;15.10;70.80
20929;DHT22;21895;47.072;15.132;2022-12-24T13:47:03;15.10;71.40
20929;DHT22;21895;47.072;15.132;2022-12-24T13:49:50;15.00;72.00
20929;DHT22;21895;47.072;15.132;2022-12-24T13:52:22;15.00;70.70
20929;DHT22;21895;47.072;15.132;2022-12-24T13:55:12;14.90;70.30
20929;DHT22;21895;47.072;15.132;2022-12-24T13:57:53;14.90;71.20
20929;DHT22;21895;47.072;15.132;2022-12-24T14:00:30;14.80;71.70
20929;DHT22;21895;47.072;15.132;2022-12-24T14:06:58;14.80;71.30
20929;DHT22;21895;47.072;15.132;2022-12-24T14:09:29;14.80;71.30
20929;DHT22;21895;47.072;15.132;2022-12-24T14:12:30;14.70;71.80
20929;DHT22;21895;47.072;15.132;2022-12-24T14:20:17;14.60;71.90
20929;DHT22;21895;47.072;15.132;2022-12-24T14:22:45;14.40;73.30
20929;DHT22;21895;47.072;15.132;2022-12-24T14:25:21;14.20;74.30
20929;DHT22;21895;47.072;15.132;2022-12-24T14:27:58;14.10;73.40
20929;DHT22;21895;47.072;15.132;2022-12-24T14:30:30;13.90;73.80
20929;DHT22;21895;47.072;15.132;2022-12-24T14:32:56;14.00;72.40
20929;DHT22;21895;47.072;15.132;2022-12-24T14:35:25;14.00;72.60
20929;DHT22;21895;47.072;15.132;2022-12-24T14:38:03;14.00;72.50
20929;DHT22;21895;47.072;15.132;2022-12-24T14:49:59;14.00;73.00
20929;DHT22;21895;47.072;15.132;2022-12-24T14:56:12;12.90;84.40
20929;DHT22;21895;47.072;15.132;2022-12-24T14:58:40;12.60;86.30
20929;DHT22;21895;47.072;15.132;2022-12-24T15:01:28;12.10;88.50
20929;DHT22;21895;47.072;15.132;2022-12-24T15:04:15;11.80;90.20
20929;DHT22;21895;47.072;15.132;2022-12-24T15:07:03;11.20;90.90
20929;DHT22;21895;47.072;15.132;2022-12-24T15:09:32;10.80;91.40
20929;DHT22;21895;47.072;15.132;2022-12-24T15:12:00;10.50;91.70
20929;DHT22;21895;47.072;15.132;2022-12-24T15:14:34;10.50;91.90
20929;DHT22;21895;47.072;15.132;2022-12-24T15:17:11;10.30;92.10
20929;DHT22;21895;47.072;15.132;2022-12-24T15:19:40;10.10;92.70
20929;DHT22;21895;47.072;15.132;2022-12-24T15:22:21;9.90;93.00
20929;DHT22;21895;47.072;15.132;2022-12-24T15:24:49;9.90;93.40
20929;DHT22;21895;47.072;15.132;2022-12-24T15:27:22;9.80;94.70
20929;DHT22;21895;47.072;15.132;2022-12-24T15:29:52;9.70;94.10
20929;DHT22;21895;47.072;15.132;2022-12-24T15:32:21;9.60;95.00
20929;DHT22;21895;47.072;15.132;2022-12-24T15:34:53;9.50;95.60
20929;DHT22;21895;47.072;15.132;2022-12-24T15:37:24;9.40;95.20
20929;DHT22;21895;47.072;15.132;2022-12-24T15:39:55;9.40;95.50
20929;DHT22;21895;47.072;15.132;2022-12-24T15:42:34;9.30;95.40
20929;DHT22;21895;47.072;15.132;2022-12-24T15:45:20;9.20;95.50
20929;DHT22;21895;47.072;15.132;2022-12-24T15:48:00;9.00;95.80
20929;DHT22;21895;47.072;15.132;2022-12-24T15:50:44;8.90;96.10
20929;DHT22;21895;47.072;15.132;2022-12-24T15:53:36;8.70;96.20
20929;DHT22;21895;47.072;15.132;2022-12-24T15:56:13;8.50;96.40
20929;DHT22;21895;47.072;15.132;2022-12-24T15:59:28;8.30;96.70
20929;DHT22;21895;47.072;15.132;2022-12-24T16:02:31;7.90;96.80
20929;DHT22;21895;47.072;15.132;2022-12-24T16:05:33;7.40;97.90
20929;DHT22;21895;47.072;15.132;2022-12-24T16:08:20;7.10;98.40
20929;DHT22;21895;47.072;15.132;2022-12-24T16:10:52;7.00;98.70
20929;DHT22;21895;47.072;15.132;2022-12-24T16:13:39;6.80;99.00
20929;DHT22;21895;47.072;15.132;2022-12-24T16:16:13;6.60;99.10
20929;DHT22;21895;47.072;15.132;2022-12-24T16:19:03;6.50;99.90
20929;DHT22;21895;47.072;15.132;2022-12-24T16:21:35;6.50;99.90
20929;DHT22;21895;47.072;15.132;2022-12-24T16:24:19;6.40;99.80
20929;DHT22;21895;47.072;15.132;2022-12-24T16:26:49;6.20;99.90
20929;DHT22;21895;47.072;15.132;2022-12-24T16:29:16;6.10;99.90
20929;DHT22;21895;47.072;15.132;2022-12-24T16:31:57;5.90;99.90
20929;DHT22;21895;47.072;15.132;2022-12-24T16:34:27;5.90;99.90
20929;DHT22;21895;47.072;15.132;2022-12-24T16:36:56;5.70;99.90
20929;DHT22;21895;47.072;15.132;2022-12-24T16:39:30;5.60;99.90
20929;DHT22;21895;47.072;15.132;2022-12-24T16:42:01;5.50;99.90
20929;DHT22;21895;47.072;15.132;2022-12-24T16:44:47;5.40;99.90
20929;DHT22;21895;47.072;15.132;2022-12-24T16:47:25;5.30;99.90
20929;DHT22;21895;47.072;15.132;2022-12-24T16:49:59;5.20;99.90
20929;DHT22;21895;47.072;15.132;2022-12-24T16:52:28;5.10;99.90
20929;DHT22;21895;47.072;15.132;2022-12-24T16:54:56;5.00;99.90
20929;DHT22;21895;47.072;15.132;2022-12-24T16:57:23;4.90;99.90
20929;DHT22;21895;47.072;15.132;2022-12-24T16:59:50;4.90;99.90
20929;DHT22;21895;47.072;15.132;2022-12-24T17:02:20;4.90;99.90
20929;DHT22;21895;47.072;15.132;2022-12-24T17:04:48;4.90;99.90
20929;DHT22;21895;47.072;15.132;2022-12-24T17:07:17;4.80;99.90
20929;DHT22;21895;47.072;15.132;2022-12-24T17:09:45;4.70;99.90
20929;DHT22;21895;47.072;15.132;2022-12-24T17:12:12;4.70;99.90
20929;DHT22;21895;47.072;15.132;2022-12-24T17:14:40;4.60;99.90
20929;DHT22;21895;47.072;15.132;2022-12-24T17:17:25;4.40;99.90
20929;DHT22;21895;47.072;15.132;2022-12-24T17:19:53;4.40;99.90